createdAt,value
2023-03-10T00:01:28.941Z,1.70
2023-03-10T00:04:01.086Z,1.50
2023-03-10T00:06:35.799Z,1.33
2023-03-10T00:09:10.560Z,1.40
2023-03-10T00:11:40.753Z,1.13
2023-03-10T00:14:12.133Z,1.30
2023-03-10T00:16:40.336Z,0.70
2023-03-10T00:19:08.450Z,0.70
2023-03-10T00:21:36.569Z,1.30
2023-03-10T00:24:05.082Z,2.00
2023-03-10T00:26:33.991Z,1.83
2023-03-10T00:29:03.438Z,0.80
2023-03-10T00:31:32.544Z,0.93
2023-03-10T00:34:02.023Z,1.43
2023-03-10T00:36:31.426Z,1.90
2023-03-10T00:39:01.383Z,1.03
2023-03-10T00:41:31.778Z,1.43
2023-03-10T00:44:00.760Z,1.13
2023-03-10T00:46:33.299Z,0.70
2023-03-10T00:49:02.832Z,1.53
2023-03-10T00:51:30.933Z,0.83
2023-03-10T00:54:00.541Z,0.67
2023-03-10T00:56:29.800Z,0.80
2023-03-10T00:59:00.050Z,0.83
2023-03-10T01:01:31.298Z,1.20
2023-03-10T01:04:02.244Z,0.50
2023-03-10T01:06:32.280Z,0.87
2023-03-10T01:09:00.456Z,0.50
2023-03-10T01:11:30.669Z,0.67
2023-03-10T01:14:00.286Z,1.20
2023-03-10T01:16:30.095Z,0.60
2023-03-10T01:19:01.467Z,1.47
2023-03-10T01:21:31.870Z,0.40
2023-03-10T01:24:00.862Z,0.93
2023-03-10T01:26:28.905Z,1.30
2023-03-10T01:28:56.898Z,0.50
2023-03-10T01:31:25.378Z,0.40
2023-03-10T01:33:55.015Z,0.40
2023-03-10T01:36:26.276Z,0.93
2023-03-10T01:38:54.898Z,0.70
2023-03-10T01:41:23.009Z,1.00
2023-03-10T01:43:52.199Z,0.73
2023-03-10T01:46:45.725Z,0.93
2023-03-10T01:49:39.033Z,0.50
2023-03-10T01:52:11.353Z,0.97
2023-03-10T01:54:44.177Z,1.47
2023-03-10T01:57:12.701Z,1.50
2023-03-10T01:59:41.770Z,0.70
2023-03-10T02:02:11.043Z,1.23
2023-03-10T02:04:43.373Z,0.63
2023-03-10T02:07:12.204Z,0.70
2023-03-10T02:09:44.754Z,0.70
2023-03-10T02:12:14.949Z,0.50
2023-03-10T02:14:43.977Z,1.00
2023-03-10T02:17:16.971Z,1.90
2023-03-10T02:20:04.199Z,1.13
2023-03-10T02:22:32.743Z,2.13
2023-03-10T02:25:05.453Z,0.60
2023-03-10T02:27:35.930Z,0.77
2023-03-10T02:30:09.695Z,1.13
2023-03-10T02:32:40.904Z,0.77
2023-03-10T02:35:10.103Z,0.53
2023-03-10T02:37:45.674Z,0.60
2023-03-10T02:40:33.789Z,1.67
2023-03-10T02:43:17.962Z,0.70
2023-03-10T02:45:48.433Z,0.70
2023-03-10T02:48:25.438Z,0.60
2023-03-10T02:50:59.418Z,2.53
2023-03-10T02:53:29.354Z,1.47
2023-03-10T02:56:00.039Z,1.23
2023-03-10T02:58:37.601Z,0.83
2023-03-10T03:01:08.594Z,1.93
2023-03-10T03:03:40.444Z,2.23
2023-03-10T03:06:11.590Z,1.83
2023-03-10T03:08:41.546Z,2.10
2023-03-10T03:11:15.881Z,2.63
2023-03-10T03:13:47.557Z,3.53
2023-03-10T03:16:15.729Z,2.87
2023-03-10T03:18:45.416Z,4.53
2023-03-10T03:21:20.190Z,2.87
2023-03-10T03:23:48.868Z,6.03
2023-03-10T03:26:20.841Z,6.23
2023-03-10T03:28:52.243Z,5.47
2023-03-10T03:31:25.878Z,8.40
2023-03-10T03:34:04.411Z,4.20
2023-03-10T03:36:32.761Z,5.17
2023-03-10T03:39:00.906Z,6.13
2023-03-10T03:41:31.994Z,3.30
2023-03-10T03:44:01.940Z,5.13
2023-03-10T03:46:31.804Z,6.50
2023-03-10T03:49:03.281Z,4.73
2023-03-10T03:51:32.768Z,6.00
2023-03-10T03:54:04.558Z,8.47
2023-03-10T03:56:36.259Z,2.27
2023-03-10T03:59:05.816Z,5.73
2023-03-10T04:01:34.222Z,4.77
2023-03-10T04:04:07.422Z,6.33
2023-03-10T04:06:35.759Z,4.20
2023-03-10T04:09:04.800Z,6.47
2023-03-10T04:11:37.225Z,6.83
2023-03-10T04:14:06.578Z,5.13
2023-03-10T04:16:34.735Z,6.10
2023-03-10T04:19:07.440Z,4.80
2023-03-10T04:21:36.796Z,6.83
2023-03-10T04:24:05.815Z,6.20
2023-03-10T04:26:35.448Z,4.73
2023-03-10T04:29:06.742Z,4.87
2023-03-10T04:31:37.550Z,7.80
2023-03-10T04:34:07.212Z,7.13
2023-03-10T04:36:37.079Z,6.17
2023-03-10T04:39:06.183Z,4.57
2023-03-10T04:41:34.119Z,6.70
2023-03-10T04:44:02.123Z,6.10
2023-03-10T04:46:32.789Z,8.37
2023-03-10T04:49:03.984Z,5.70
2023-03-10T04:51:35.697Z,6.27
2023-03-10T04:54:03.896Z,6.23
2023-03-10T04:56:33.480Z,4.93
2023-03-10T04:59:02.287Z,5.70
2023-03-10T05:01:36.675Z,5.67
2023-03-10T05:04:07.465Z,5.80
2023-03-10T05:06:36.060Z,5.17
2023-03-10T05:09:21.205Z,2.83
2023-03-10T05:11:52.938Z,3.30
2023-03-10T05:14:21.004Z,4.30
2023-03-10T05:16:51.004Z,6.10
2023-03-10T05:19:18.977Z,4.70
2023-03-10T05:21:47.373Z,6.60
2023-03-10T05:24:16.632Z,5.27
2023-03-10T05:26:45.379Z,5.30
2023-03-10T05:29:13.383Z,3.93
2023-03-10T05:31:46.162Z,4.40
2023-03-10T05:34:23.715Z,5.63
2023-03-10T05:36:52.401Z,4.00
2023-03-10T05:39:21.080Z,2.37
2023-03-10T05:41:52.296Z,6.47
2023-03-10T05:44:20.575Z,3.67
2023-03-10T05:46:49.799Z,3.47
2023-03-10T05:49:18.187Z,4.13
2023-03-10T05:51:47.915Z,3.80
2023-03-10T05:54:16.717Z,4.23
2023-03-10T05:56:44.838Z,3.87
2023-03-10T05:59:12.947Z,4.37
2023-03-10T06:01:40.929Z,3.50
2023-03-10T06:04:08.979Z,4.50
2023-03-10T06:06:37.239Z,4.57
2023-03-10T06:09:07.193Z,6.07
2023-03-10T06:11:35.290Z,5.03
2023-03-10T06:14:04.281Z,4.17
2023-03-10T06:16:34.993Z,5.40
2023-03-10T06:19:03.032Z,4.30
2023-03-10T06:21:31.097Z,4.70
2023-03-10T06:23:59.356Z,3.93
2023-03-10T06:26:33.218Z,3.57
2023-03-10T06:29:01.190Z,3.80
2023-03-10T06:31:29.813Z,5.33
2023-03-10T06:34:03.233Z,4.77
2023-03-10T06:36:32.677Z,5.67
2023-03-10T06:39:00.764Z,4.33
2023-03-10T06:41:28.973Z,5.97
2023-03-10T06:43:58.401Z,5.23
2023-03-10T06:46:26.624Z,5.40
2023-03-10T06:48:54.579Z,3.93
2023-03-10T06:51:23.522Z,5.77
2023-03-10T06:53:51.490Z,6.57
2023-03-10T06:56:23.213Z,5.20
2023-03-10T06:58:51.173Z,5.90
2023-03-10T07:01:25.762Z,7.83
2023-03-10T07:03:59.012Z,2.93
2023-03-10T07:06:33.257Z,4.17
2023-03-10T07:09:01.738Z,4.70
2023-03-10T07:11:32.813Z,5.33
2023-03-10T07:14:15.721Z,4.60
2023-03-10T07:16:48.145Z,6.10
2023-03-10T07:19:16.275Z,6.63
2023-03-10T07:21:44.483Z,6.77
2023-03-10T07:24:12.656Z,6.03
2023-03-10T07:26:40.913Z,5.07
2023-03-10T07:29:09.109Z,4.83
2023-03-10T07:31:37.844Z,6.00
2023-03-10T07:34:10.214Z,3.67
2023-03-10T07:36:41.337Z,5.33
2023-03-10T07:39:09.435Z,4.97
2023-03-10T07:41:37.479Z,3.30
2023-03-10T07:44:07.238Z,4.57
2023-03-10T07:46:37.093Z,5.73
2023-03-10T07:49:05.210Z,8.63
2023-03-10T07:51:35.550Z,3.40
2023-03-10T07:54:03.605Z,5.63
2023-03-10T07:56:31.687Z,5.23
2023-03-10T07:59:00.020Z,5.07
2023-03-10T08:01:28.058Z,6.87
2023-03-10T08:03:58.243Z,6.63
2023-03-10T08:06:28.013Z,5.77
2023-03-10T08:09:00.146Z,5.67
2023-03-10T08:11:28.169Z,4.10
2023-03-10T08:13:56.157Z,11.63
2023-03-10T08:16:25.155Z,4.30
2023-03-10T08:18:54.830Z,6.43
2023-03-10T08:21:25.559Z,4.50
2023-03-10T08:23:57.842Z,4.57
2023-03-10T08:26:29.080Z,4.20
2023-03-10T08:28:57.212Z,3.13
2023-03-10T08:31:25.309Z,4.50
2023-03-10T08:33:58.092Z,2.23
2023-03-10T08:36:33.614Z,2.70
2023-03-10T08:39:05.713Z,1.67
2023-03-10T08:41:39.053Z,3.10
2023-03-10T08:44:07.596Z,3.33
2023-03-10T08:46:35.769Z,2.97
2023-03-10T08:49:03.890Z,3.47
2023-03-10T08:51:31.933Z,4.90
2023-03-10T08:54:01.262Z,2.57
2023-03-10T08:56:30.919Z,2.33
2023-03-10T08:59:00.750Z,2.53
2023-03-10T09:01:31.000Z,1.17
2023-03-10T09:03:59.764Z,2.50
2023-03-10T09:06:28.032Z,2.13
2023-03-10T09:08:56.090Z,1.70
2023-03-10T09:11:25.716Z,3.87
2023-03-10T09:13:55.511Z,2.40
2023-03-10T09:16:23.750Z,3.03
2023-03-10T09:18:51.854Z,2.97
2023-03-10T09:21:20.694Z,2.00
2023-03-10T09:23:50.051Z,2.67
2023-03-10T09:26:18.068Z,2.60
2023-03-10T09:28:47.134Z,3.73
2023-03-10T09:31:18.468Z,1.20
2023-03-10T09:33:48.300Z,2.50
2023-03-10T09:36:17.273Z,1.97
2023-03-10T09:38:45.707Z,4.37
2023-03-10T09:41:38.583Z,3.47
2023-03-10T09:44:17.587Z,3.10
2023-03-10T09:46:52.551Z,3.90
2023-03-10T09:49:23.462Z,5.23
2023-03-10T09:51:51.968Z,3.27
2023-03-10T09:54:33.425Z,4.33
2023-03-10T09:57:04.321Z,3.43
2023-03-10T09:59:35.414Z,4.03
2023-03-10T10:02:16.025Z,2.90
2023-03-10T10:04:44.304Z,4.23
2023-03-10T10:07:16.949Z,2.60
2023-03-10T10:09:47.941Z,2.17
2023-03-10T10:12:17.119Z,3.07
2023-03-10T10:14:55.267Z,4.07
2023-03-10T10:17:39.115Z,3.27
2023-03-10T10:20:16.591Z,3.57
2023-03-10T10:22:45.543Z,4.13
2023-03-10T10:25:18.838Z,3.17
2023-03-10T10:27:47.837Z,2.77
2023-03-10T10:30:34.563Z,6.10
2023-03-10T10:33:05.466Z,3.83
2023-03-10T10:35:35.360Z,3.00
2023-03-10T10:38:06.392Z,4.13
2023-03-10T10:40:36.355Z,4.07
2023-03-10T10:43:07.752Z,3.73
2023-03-10T10:45:37.554Z,4.80
2023-03-10T10:48:07.505Z,2.93
2023-03-10T10:50:36.529Z,2.67
2023-03-10T10:53:26.835Z,1.67
2023-03-10T10:56:04.219Z,2.20
2023-03-10T10:58:36.686Z,2.10
2023-03-10T11:01:07.037Z,1.13
2023-03-10T11:03:38.254Z,1.63
2023-03-10T11:06:15.174Z,0.73
2023-03-10T11:08:50.644Z,1.33
2023-03-10T11:11:25.550Z,1.97
2023-03-10T11:14:13.411Z,0.80
2023-03-10T11:16:49.864Z,3.27
2023-03-10T11:19:25.942Z,3.17
2023-03-10T11:21:57.585Z,2.17
2023-03-10T11:24:28.006Z,1.77
2023-03-10T11:26:59.894Z,2.27
2023-03-10T11:29:51.549Z,3.87
2023-03-10T11:32:28.098Z,2.23
2023-03-10T11:34:58.271Z,1.90
2023-03-10T11:37:32.962Z,1.33
2023-03-10T11:40:15.858Z,0.70
2023-03-10T11:42:49.055Z,1.03
2023-03-10T11:45:23.364Z,5.10
2023-03-10T11:47:58.097Z,2.20
2023-03-10T11:50:33.251Z,3.57
2023-03-10T11:53:04.188Z,4.80
2023-03-10T11:55:34.940Z,3.53
2023-03-10T11:58:05.155Z,3.93
2023-03-10T12:00:36.084Z,4.23
2023-03-10T12:03:16.304Z,5.23
2023-03-10T12:05:50.279Z,4.40
2023-03-10T12:08:19.209Z,3.03
2023-03-10T12:10:49.235Z,2.80
2023-03-10T12:13:24.513Z,3.03
2023-03-10T12:15:55.783Z,2.90
2023-03-10T12:18:27.138Z,3.30
2023-03-10T12:21:17.798Z,3.17
2023-03-10T12:23:47.177Z,2.70
2023-03-10T12:26:56.464Z,3.17
2023-03-10T12:29:36.049Z,1.03
2023-03-10T12:32:04.360Z,1.63
2023-03-10T12:34:33.191Z,2.20
2023-03-10T12:37:08.304Z,2.07
2023-03-10T12:39:41.596Z,5.77
2023-03-10T12:42:33.578Z,4.60
2023-03-10T12:45:18.291Z,4.03
2023-03-10T12:47:50.572Z,2.17
2023-03-10T12:50:33.443Z,3.03
2023-03-10T12:53:08.383Z,3.37
2023-03-10T12:55:36.858Z,4.77
2023-03-10T12:58:14.692Z,2.80
2023-03-10T13:00:49.323Z,1.50
2023-03-10T13:03:24.963Z,2.17
2023-03-10T13:06:00.749Z,3.00
2023-03-10T13:08:35.997Z,1.37
2023-03-10T13:11:04.774Z,4.67
2023-03-10T13:13:34.685Z,3.43
2023-03-10T13:16:05.592Z,0.77
2023-03-10T13:18:33.999Z,1.60
2023-03-10T13:21:02.605Z,1.53
2023-03-10T13:23:34.438Z,1.47
2023-03-10T13:26:04.084Z,1.30
2023-03-10T13:28:35.183Z,1.40
2023-03-10T13:31:11.632Z,1.67
2023-03-10T13:33:52.381Z,1.07
2023-03-10T13:36:32.517Z,1.00
2023-03-10T13:39:04.310Z,0.60
2023-03-10T13:41:37.367Z,1.03
2023-03-10T13:44:05.890Z,0.60
2023-03-10T13:46:35.700Z,0.70
2023-03-10T13:49:07.320Z,2.13
2023-03-10T13:51:36.985Z,2.97
2023-03-10T13:54:22.156Z,2.43
2023-03-10T13:56:52.139Z,0.60
2023-03-10T13:59:25.124Z,0.50
2023-03-10T14:01:55.532Z,0.73
2023-03-10T14:04:45.525Z,1.43
2023-03-10T14:07:17.012Z,0.47
2023-03-10T14:09:47.025Z,0.50
2023-03-10T14:12:16.210Z,0.73
2023-03-10T14:14:44.628Z,0.80
2023-03-10T14:17:30.974Z,0.73
2023-03-10T14:19:59.057Z,0.53
2023-03-10T14:22:35.266Z,0.67
2023-03-10T14:25:10.314Z,0.53
2023-03-10T14:27:42.142Z,1.87
2023-03-10T14:30:20.842Z,0.70
2023-03-10T14:32:49.415Z,0.60
2023-03-10T14:35:20.171Z,0.73
2023-03-10T14:37:48.407Z,0.70
2023-03-10T14:40:18.813Z,0.47
2023-03-10T14:42:46.993Z,0.57
2023-03-10T14:45:24.242Z,0.50
2023-03-10T14:47:52.601Z,0.70
2023-03-10T14:50:21.923Z,0.57
2023-03-10T14:52:50.129Z,0.67
2023-03-10T14:55:19.809Z,0.60
2023-03-10T14:57:49.515Z,0.80
2023-03-10T15:00:23.121Z,0.70
2023-03-10T15:02:52.403Z,0.83
2023-03-10T15:05:24.695Z,1.43
2023-03-10T15:07:55.820Z,2.30
2023-03-10T15:10:27.648Z,0.73
2023-03-10T15:12:55.757Z,0.93
2023-03-10T15:15:25.454Z,0.70
2023-03-10T15:17:53.945Z,0.70
2023-03-10T15:20:24.600Z,2.43
2023-03-10T15:22:53.206Z,1.43
2023-03-10T15:25:22.583Z,1.10
2023-03-10T15:27:52.841Z,0.80
2023-03-10T15:30:23.039Z,1.43
2023-03-10T15:32:51.583Z,1.97
2023-03-10T15:35:21.650Z,1.13
2023-03-10T15:37:52.811Z,0.83
2023-03-10T15:40:22.908Z,0.97
2023-03-10T15:42:52.885Z,1.13
2023-03-10T15:45:21.016Z,1.90
2023-03-10T15:47:49.783Z,1.17
2023-03-10T15:50:20.241Z,1.10
2023-03-10T15:52:49.908Z,4.27
2023-03-10T15:55:18.660Z,0.97
2023-03-10T15:57:49.861Z,1.10
2023-03-10T16:00:23.706Z,1.27
2023-03-10T16:02:52.148Z,0.90
2023-03-10T16:05:20.746Z,1.00
2023-03-10T16:07:48.854Z,1.00
2023-03-10T16:10:20.280Z,2.67
2023-03-10T16:12:48.341Z,1.97
2023-03-10T16:15:21.099Z,0.77
2023-03-10T16:17:49.060Z,0.80
2023-03-10T16:20:21.951Z,0.67
2023-03-10T16:22:52.972Z,0.70
2023-03-10T16:25:21.634Z,0.60
2023-03-10T16:27:50.251Z,0.80
2023-03-10T16:30:20.826Z,0.80
2023-03-10T16:32:49.978Z,0.70
2023-03-10T16:35:21.207Z,1.90
2023-03-10T16:37:49.375Z,0.50
2023-03-10T16:40:19.820Z,2.40
2023-03-10T16:42:50.250Z,0.73
2023-03-10T16:45:18.691Z,0.80
2023-03-10T16:47:49.281Z,0.70
2023-03-10T16:50:17.717Z,1.20
2023-03-10T16:52:46.260Z,1.13
2023-03-10T16:55:17.323Z,0.80
2023-03-10T16:57:46.286Z,0.87
2023-03-10T17:00:15.579Z,1.10
2023-03-10T17:02:43.703Z,0.90
2023-03-10T17:05:15.383Z,0.97
2023-03-10T17:07:55.181Z,1.17
2023-03-10T17:10:27.047Z,1.20
2023-03-10T17:12:55.573Z,1.20
2023-03-10T17:15:23.902Z,1.50
2023-03-10T17:17:52.297Z,1.60
2023-03-10T17:20:21.965Z,1.73
2023-03-10T17:22:50.161Z,1.90
2023-03-10T17:25:18.830Z,2.30
2023-03-10T17:27:48.045Z,2.33
2023-03-10T17:30:19.099Z,2.30
2023-03-10T17:32:49.670Z,1.90
2023-03-10T17:35:18.326Z,2.27
2023-03-10T17:37:47.818Z,1.90
2023-03-10T17:40:17.337Z,2.10
2023-03-10T17:42:45.676Z,2.37
2023-03-10T17:45:13.821Z,2.20
2023-03-10T17:47:41.969Z,2.33
2023-03-10T17:50:11.177Z,2.70
2023-03-10T17:52:39.272Z,2.60
2023-03-10T17:55:09.779Z,2.37
2023-03-10T17:57:40.635Z,2.40
2023-03-10T18:00:10.841Z,2.20
2023-03-10T18:02:41.739Z,2.80
2023-03-10T18:05:11.461Z,3.00
2023-03-10T18:07:39.697Z,3.30
2023-03-10T18:10:11.186Z,3.50
2023-03-10T18:12:39.281Z,3.70
2023-03-10T18:15:08.618Z,3.63
2023-03-10T18:17:36.884Z,3.60
2023-03-10T18:20:06.591Z,4.03
2023-03-10T18:22:34.842Z,3.57
2023-03-10T18:25:08.890Z,3.90
2023-03-10T18:27:38.484Z,5.10
2023-03-10T18:30:08.149Z,4.13
2023-03-10T18:32:36.372Z,4.17
2023-03-10T18:35:07.381Z,3.20
2023-03-10T18:37:35.746Z,3.40
2023-03-10T18:40:05.956Z,3.83
2023-03-10T18:42:34.426Z,3.67
2023-03-10T18:45:04.159Z,3.30
2023-03-10T18:47:32.385Z,4.37
2023-03-10T18:50:00.640Z,3.80
2023-03-10T18:52:28.798Z,3.87
2023-03-10T18:54:59.978Z,5.33
2023-03-10T18:57:28.453Z,3.73
2023-03-10T18:59:56.942Z,4.03
2023-03-10T19:02:26.681Z,3.93
2023-03-10T19:04:56.186Z,3.90
2023-03-10T19:07:24.434Z,4.10
2023-03-10T19:09:54.430Z,3.70
2023-03-10T19:12:24.928Z,4.27
2023-03-10T19:14:54.591Z,3.37
2023-03-10T19:17:22.939Z,4.23
2023-03-10T19:19:52.295Z,3.33
2023-03-10T19:22:20.605Z,3.73
2023-03-10T19:24:48.633Z,4.23
2023-03-10T19:27:16.672Z,4.07
2023-03-10T19:29:44.632Z,3.70
2023-03-10T19:32:12.714Z,4.03
2023-03-10T19:34:40.741Z,3.30
2023-03-10T19:37:10.189Z,3.13
2023-03-10T19:39:38.236Z,3.10
2023-03-10T19:42:06.451Z,2.87
2023-03-10T19:44:34.589Z,2.60
2023-03-10T19:47:02.560Z,2.73
2023-03-10T19:49:34.128Z,2.60
2023-03-10T19:52:02.657Z,2.17
2023-03-10T19:54:32.084Z,2.10
2023-03-10T19:57:00.132Z,2.57
2023-03-10T19:59:28.114Z,2.20
2023-03-10T20:01:56.227Z,2.20
2023-03-10T20:04:24.372Z,2.23
2023-03-10T20:06:52.421Z,2.77
2023-03-10T20:09:20.496Z,2.67
2023-03-10T20:11:49.873Z,2.73
2023-03-10T20:14:18.000Z,2.83
2023-03-10T20:16:47.677Z,2.80
2023-03-10T20:19:17.897Z,3.33
2023-03-10T20:21:46.271Z,3.30
2023-03-10T20:24:14.335Z,3.10
2023-03-10T20:26:51.118Z,3.13
2023-03-10T20:29:23.299Z,3.70
2023-03-10T20:31:56.116Z,3.73
2023-03-10T20:34:26.175Z,3.57
2023-03-10T20:36:55.568Z,3.90
2023-03-10T20:39:25.480Z,3.80
2023-03-10T20:41:53.929Z,3.67
2023-03-10T20:44:23.297Z,3.67
2023-03-10T20:46:51.362Z,3.70
2023-03-10T20:49:19.358Z,3.60
2023-03-10T20:51:49.124Z,3.70
2023-03-10T20:54:17.799Z,4.47
2023-03-10T20:56:45.795Z,3.57
2023-03-10T20:59:13.899Z,4.20
2023-03-10T21:01:43.459Z,4.47
2023-03-10T21:04:14.223Z,3.70
2023-03-10T21:06:42.421Z,4.40
2023-03-10T21:09:13.721Z,4.13
2023-03-10T21:11:41.935Z,3.53
2023-03-10T21:14:10.039Z,3.57
2023-03-10T21:16:41.458Z,2.63
2023-03-10T21:19:11.477Z,3.23
2023-03-10T21:21:39.645Z,2.90
2023-03-10T21:24:10.718Z,2.70
2023-03-10T21:26:38.750Z,3.70
2023-03-10T21:29:06.773Z,3.80
2023-03-10T21:31:34.713Z,2.60
2023-03-10T21:34:04.438Z,2.80
2023-03-10T21:36:35.827Z,6.47
2023-03-10T21:39:04.181Z,3.57
2023-03-10T21:41:34.500Z,2.60
2023-03-10T21:44:06.030Z,2.77
2023-03-10T21:46:36.792Z,2.60
2023-03-10T21:49:05.276Z,2.90
2023-03-10T21:51:37.743Z,3.13
2023-03-10T21:54:08.373Z,5.07
2023-03-10T21:56:36.588Z,2.93
2023-03-10T21:59:05.185Z,4.17
2023-03-10T22:01:35.481Z,4.77
2023-03-10T22:04:06.127Z,4.30
2023-03-10T22:06:35.579Z,3.23
2023-03-10T22:09:04.619Z,3.83
2023-03-10T22:11:39.817Z,4.23
2023-03-10T22:14:08.164Z,7.43
2023-03-10T22:16:36.336Z,5.20
2023-03-10T22:19:04.606Z,4.23
2023-03-10T22:21:32.763Z,2.83
2023-03-10T22:24:03.168Z,7.07
2023-03-10T22:26:31.154Z,4.57
2023-03-10T22:29:00.372Z,4.63
2023-03-10T22:31:28.395Z,3.27
2023-03-10T22:33:56.464Z,4.37
2023-03-10T22:36:24.596Z,7.87
2023-03-10T22:38:52.612Z,2.60
2023-03-10T22:41:21.997Z,3.83
2023-03-10T22:43:52.000Z,5.53
2023-03-10T22:46:20.420Z,4.17
2023-03-10T22:48:48.837Z,8.03
2023-03-10T22:51:19.029Z,8.00
2023-03-10T22:53:47.548Z,2.40
2023-03-10T22:56:16.035Z,5.10
2023-03-10T22:58:46.856Z,5.93
2023-03-10T23:01:15.221Z,4.83
2023-03-10T23:03:43.150Z,6.90
2023-03-10T23:06:13.403Z,5.53
2023-03-10T23:08:43.511Z,4.10
2023-03-10T23:11:11.943Z,7.73
2023-03-10T23:13:40.035Z,6.77
2023-03-10T23:16:09.839Z,8.30
2023-03-10T23:18:37.978Z,8.53
2023-03-10T23:21:07.476Z,11.20
2023-03-10T23:23:35.569Z,3.03
2023-03-10T23:26:03.569Z,9.30
2023-03-10T23:28:31.534Z,9.43
2023-03-10T23:31:00.883Z,9.10
2023-03-10T23:33:30.306Z,11.80
2023-03-10T23:35:58.308Z,7.47
2023-03-10T23:38:27.278Z,5.57
2023-03-10T23:40:56.319Z,7.03
2023-03-10T23:43:24.688Z,9.10
2023-03-10T23:45:52.739Z,8.73
2023-03-10T23:48:21.621Z,5.97
2023-03-10T23:50:51.332Z,6.60
2023-03-10T23:53:20.857Z,5.23
2023-03-10T23:55:49.600Z,7.57
2023-03-10T23:58:19.257Z,6.10
